sensor_id;sensor_type;location;lat;lon;timestamp;temperature;humidity
25811;DHT22;13645;52.460;13.910;2022-07-01T00:01:12;19.80;99.90
25811;DHT22;13645;52.460;13.910;2022-07-01T00:03:38;19.80;99.90
25811;DHT22;13645;52.460;13.910;2022-07-01T00:06:05;19.80;99.90
25811;DHT22;13645;52.460;13.910;2022-07-01T00:08:32;19.80;99.90
25811;DHT22;13645;52.460;13.910;2022-07-01T00:10:58;19.80;99.90
25811;DHT22;13645;52.460;13.910;2022-07-01T00:13:25;19.70;99.90
25811;DHT22;13645;52.460;13.910;2022-07-01T00:15:52;19.70;99.90
25811;DHT22;13645;52.460;13.910;2022-07-01T00:18:19;19.70;99.90
25811;DHT22;13645;52.460;13.910;2022-07-01T00:20:48;19.70;99.90
25811;DHT22;13645;52.460;13.910;2022-07-01T00:23:14;19.70;99.90
25811;DHT22;13645;52.460;13.910;2022-07-01T00:25:44;19.70;99.90
25811;DHT22;13645;52.460;13.910;2022-07-01T00:28:11;19.70;99.90
25811;DHT22;13645;52.460;13.910;2022-07-01T00:30:38;19.70;99.90
25811;DHT22;13645;52.460;13.910;2022-07-01T00:33:05;19.70;99.90
25811;DHT22;13645;52.460;13.910;2022-07-01T00:35:32;19.70;99.90
25811;DHT22;13645;52.460;13.910;2022-07-01T00:37:59;19.70;99.90
25811;DHT22;13645;52.460;13.910;2022-07-01T00:40:26;19.60;99.90
25811;DHT22;13645;52.460;13.910;2022-07-01T00:42:53;19.60;99.90
25811;DHT22;13645;52.460;13.910;2022-07-01T00:45:19;19.60;99.90
25811;DHT22;13645;52.460;13.910;2022-07-01T00:47:46;19.50;99.90
25811;DHT22;13645;52.460;13.910;2022-07-01T00:50:14;19.60;99.90
25811;DHT22;13645;52.460;13.910;2022-07-01T00:52:43;19.50;99.90
25811;DHT22;13645;52.460;13.910;2022-07-01T00:55:12;19.60;99.90
25811;DHT22;13645;52.460;13.910;2022-07-01T00:57:41;19.60;99.90
25811;DHT22;13645;52.460;13.910;2022-07-01T01:00:17;19.60;99.90
25811;DHT22;13645;52.460;13.910;2022-07-01T01:02:48;19.60;99.90
25811;DHT22;13645;52.460;13.910;2022-07-01T01:05:15;19.60;99.90
25811;DHT22;13645;52.460;13.910;2022-07-01T01:07:44;19.60;99.90
25811;DHT22;13645;52.460;13.910;2022-07-01T01:10:11;19.60;99.90
25811;DHT22;13645;52.460;13.910;2022-07-01T01:12:38;19.60;99.90
25811;DHT22;13645;52.460;13.910;2022-07-01T01:15:05;19.60;99.90
25811;DHT22;13645;52.460;13.910;2022-07-01T01:17:32;19.60;99.90
25811;DHT22;13645;52.460;13.910;2022-07-01T01:19:59;19.50;99.90
25811;DHT22;13645;52.460;13.910;2022-07-01T01:22:26;19.50;99.90
25811;DHT22;13645;52.460;13.910;2022-07-01T01:24:53;19.40;99.90
25811;DHT22;13645;52.460;13.910;2022-07-01T01:27:19;19.40;99.90
25811;DHT22;13645;52.460;13.910;2022-07-01T01:29:46;19.40;99.90
25811;DHT22;13645;52.460;13.910;2022-07-01T01:32:13;19.40;99.90
25811;DHT22;13645;52.460;13.910;2022-07-01T01:34:39;19.30;99.90
25811;DHT22;13645;52.460;13.910;2022-07-01T01:37:08;19.30;99.90
25811;DHT22;13645;52.460;13.910;2022-07-01T01:39:35;19.30;99.90
25811;DHT22;13645;52.460;13.910;2022-07-01T01:42:06;19.20;99.90
25811;DHT22;13645;52.460;13.910;2022-07-01T01:44:33;19.20;99.90
25811;DHT22;13645;52.460;13.910;2022-07-01T01:47:01;19.20;99.90
25811;DHT22;13645;52.460;13.910;2022-07-01T01:49:28;19.20;99.90
25811;DHT22;13645;52.460;13.910;2022-07-01T01:51:56;19.20;99.90
25811;DHT22;13645;52.460;13.910;2022-07-01T01:54:24;19.10;99.90
25811;DHT22;13645;52.460;13.910;2022-07-01T01:56:51;19.10;99.90
25811;DHT22;13645;52.460;13.910;2022-07-01T01:59:18;19.10;99.90
25811;DHT22;13645;52.460;13.910;2022-07-01T02:01:45;19.10;99.90
25811;DHT22;13645;52.460;13.910;2022-07-01T02:04:11;19.10;99.90
25811;DHT22;13645;52.460;13.910;2022-07-01T02:06:38;19.10;99.90
25811;DHT22;13645;52.460;13.910;2022-07-01T02:09:08;19.10;99.90
25811;DHT22;13645;52.460;13.910;2022-07-01T02:11:38;19.00;99.90
25811;DHT22;13645;52.460;13.910;2022-07-01T02:14:04;19.00;99.90
25811;DHT22;13645;52.460;13.910;2022-07-01T02:16:31;19.00;99.90
25811;DHT22;13645;52.460;13.910;2022-07-01T02:18:58;19.00;99.90
25811;DHT22;13645;52.460;13.910;2022-07-01T02:21:25;19.00;99.90
25811;DHT22;13645;52.460;13.910;2022-07-01T02:23:52;18.90;99.90
25811;DHT22;13645;52.460;13.910;2022-07-01T02:26:18;18.90;99.90
25811;DHT22;13645;52.460;13.910;2022-07-01T02:28:45;18.90;99.90
25811;DHT22;13645;52.460;13.910;2022-07-01T02:31:12;18.90;99.90
25811;DHT22;13645;52.460;13.910;2022-07-01T02:33:39;18.90;99.90
25811;DHT22;13645;52.460;13.910;2022-07-01T02:36:06;18.90;99.90
25811;DHT22;13645;52.460;13.910;2022-07-01T02:38:33;18.90;99.90
25811;DHT22;13645;52.460;13.910;2022-07-01T02:41:00;18.90;99.90
25811;DHT22;13645;52.460;13.910;2022-07-01T02:43:26;18.90;99.90
25811;DHT22;13645;52.460;13.910;2022-07-01T02:45:53;18.80;99.90
25811;DHT22;13645;52.460;13.910;2022-07-01T02:48:20;18.80;99.90
25811;DHT22;13645;52.460;13.910;2022-07-01T02:50:47;18.80;99.90
25811;DHT22;13645;52.460;13.910;2022-07-01T02:53:14;18.80;99.90
25811;DHT22;13645;52.460;13.910;2022-07-01T02:55:41;18.80;99.90
25811;DHT22;13645;52.460;13.910;2022-07-01T02:58:07;18.80;99.90
25811;DHT22;13645;52.460;13.910;2022-07-01T03:00:34;18.80;99.90
25811;DHT22;13645;52.460;13.910;2022-07-01T03:03:01;18.80;99.90
25811;DHT22;13645;52.460;13.910;2022-07-01T03:05:27;18.80;99.90
25811;DHT22;13645;52.460;13.910;2022-07-01T03:07:54;18.80;99.90
25811;DHT22;13645;52.460;13.910;2022-07-01T03:10:21;18.80;99.90
25811;DHT22;13645;52.460;13.910;2022-07-01T03:12:48;18.90;99.90
25811;DHT22;13645;52.460;13.910;2022-07-01T03:15:15;18.90;99.90
25811;DHT22;13645;52.460;13.910;2022-07-01T03:17:44;18.90;99.90
25811;DHT22;13645;52.460;13.910;2022-07-01T03:20:13;18.90;99.90
25811;DHT22;13645;52.460;13.910;2022-07-01T03:22:41;18.90;99.90
25811;DHT22;13645;52.460;13.910;2022-07-01T03:25:09;18.90;99.90
25811;DHT22;13645;52.460;13.910;2022-07-01T03:27:36;18.90;99.90
25811;DHT22;13645;52.460;13.910;2022-07-01T03:30:04;19.00;99.90
25811;DHT22;13645;52.460;13.910;2022-07-01T03:32:32;19.00;99.90
25811;DHT22;13645;52.460;13.910;2022-07-01T03:34:59;19.00;99.90
25811;DHT22;13645;52.460;13.910;2022-07-01T03:37:26;19.00;99.90
25811;DHT22;13645;52.460;13.910;2022-07-01T03:39:52;19.10;99.90
25811;DHT22;13645;52.460;13.910;2022-07-01T03:42:20;19.10;99.90
25811;DHT22;13645;52.460;13.910;2022-07-01T03:44:46;19.10;99.90
25811;DHT22;13645;52.460;13.910;2022-07-01T03:47:13;19.20;99.90
25811;DHT22;13645;52.460;13.910;2022-07-01T03:49:40;19.20;99.90
25811;DHT22;13645;52.460;13.910;2022-07-01T03:52:07;19.20;99.90
25811;DHT22;13645;52.460;13.910;2022-07-01T03:54:33;19.20;99.90
25811;DHT22;13645;52.460;13.910;2022-07-01T03:57:06;19.30;99.90
25811;DHT22;13645;52.460;13.910;2022-07-01T03:59:38;19.30;99.90
25811;DHT22;13645;52.460;13.910;2022-07-01T04:02:06;19.30;99.90
25811;DHT22;13645;52.460;13.910;2022-07-01T04:04:34;19.40;99.90
25811;DHT22;13645;52.460;13.910;2022-07-01T04:07:03;19.40;99.90
25811;DHT22;13645;52.460;13.910;2022-07-01T04:09:31;19.40;99.90
25811;DHT22;13645;52.460;13.910;2022-07-01T04:11:57;19.50;99.90
25811;DHT22;13645;52.460;13.910;2022-07-01T04:14:24;19.50;99.90
25811;DHT22;13645;52.460;13.910;2022-07-01T04:16:52;19.60;99.90
25811;DHT22;13645;52.460;13.910;2022-07-01T04:19:19;19.70;99.90
25811;DHT22;13645;52.460;13.910;2022-07-01T04:21:46;19.70;99.90
25811;DHT22;13645;52.460;13.910;2022-07-01T04:24:32;19.80;99.90
25811;DHT22;13645;52.460;13.910;2022-07-01T04:27:00;19.90;99.90
25811;DHT22;13645;52.460;13.910;2022-07-01T04:29:27;19.90;99.90
25811;DHT22;13645;52.460;13.910;2022-07-01T04:31:56;20.00;99.90
25811;DHT22;13645;52.460;13.910;2022-07-01T04:34:24;20.10;99.90
25811;DHT22;13645;52.460;13.910;2022-07-01T04:36:51;20.20;99.90
25811;DHT22;13645;52.460;13.910;2022-07-01T04:39:18;20.30;99.90
25811;DHT22;13645;52.460;13.910;2022-07-01T04:41:45;20.40;99.90
25811;DHT22;13645;52.460;13.910;2022-07-01T04:44:35;20.40;99.90
25811;DHT22;13645;52.460;13.910;2022-07-01T04:47:09;20.50;99.90
25811;DHT22;13645;52.460;13.910;2022-07-01T04:49:35;20.60;99.90
25811;DHT22;13645;52.460;13.910;2022-07-01T04:52:02;20.70;99.90
25811;DHT22;13645;52.460;13.910;2022-07-01T04:54:29;20.80;99.90
25811;DHT22;13645;52.460;13.910;2022-07-01T04:56:56;20.80;99.90
25811;DHT22;13645;52.460;13.910;2022-07-01T04:59:22;20.90;99.90
25811;DHT22;13645;52.460;13.910;2022-07-01T05:01:49;20.90;99.90
25811;DHT22;13645;52.460;13.910;2022-07-01T05:04:18;21.00;99.90
25811;DHT22;13645;52.460;13.910;2022-07-01T05:06:45;21.10;99.90
25811;DHT22;13645;52.460;13.910;2022-07-01T05:09:12;21.20;99.90
25811;DHT22;13645;52.460;13.910;2022-07-01T05:11:39;21.30;99.90
25811;DHT22;13645;52.460;13.910;2022-07-01T05:14:07;21.40;99.90
25811;DHT22;13645;52.460;13.910;2022-07-01T05:16:34;21.50;99.90
25811;DHT22;13645;52.460;13.910;2022-07-01T05:19:02;21.60;99.90
25811;DHT22;13645;52.460;13.910;2022-07-01T05:21:48;21.70;99.90
25811;DHT22;13645;52.460;13.910;2022-07-01T05:24:27;21.80;99.90
25811;DHT22;13645;52.460;13.910;2022-07-01T05:26:55;21.90;99.90
25811;DHT22;13645;52.460;13.910;2022-07-01T05:29:21;22.00;99.90
25811;DHT22;13645;52.460;13.910;2022-07-01T05:31:48;22.20;99.90
25811;DHT22;13645;52.460;13.910;2022-07-01T05:34:15;22.30;99.90
25811;DHT22;13645;52.460;13.910;2022-07-01T05:36:42;22.40;99.90
25811;DHT22;13645;52.460;13.910;2022-07-01T05:39:09;22.60;99.90
25811;DHT22;13645;52.460;13.910;2022-07-01T05:41:35;22.70;99.90
25811;DHT22;13645;52.460;13.910;2022-07-01T05:44:02;22.90;99.90
25811;DHT22;13645;52.460;13.910;2022-07-01T05:46:29;23.00;99.90
25811;DHT22;13645;52.460;13.910;2022-07-01T05:48:56;23.10;99.90
25811;DHT22;13645;52.460;13.910;2022-07-01T05:51:23;23.20;99.90
25811;DHT22;13645;52.460;13.910;2022-07-01T05:53:50;23.50;99.90
25811;DHT22;13645;52.460;13.910;2022-07-01T05:56:17;23.70;99.90
25811;DHT22;13645;52.460;13.910;2022-07-01T05:58:43;23.80;99.90
25811;DHT22;13645;52.460;13.910;2022-07-01T06:01:10;24.00;99.90
25811;DHT22;13645;52.460;13.910;2022-07-01T06:03:37;24.00;99.90
25811;DHT22;13645;52.460;13.910;2022-07-01T06:06:04;24.20;99.90
25811;DHT22;13645;52.460;13.910;2022-07-01T06:08:31;24.40;99.90
25811;DHT22;13645;52.460;13.910;2022-07-01T06:10:58;24.50;99.90
25811;DHT22;13645;52.460;13.910;2022-07-01T06:13:25;24.50;99.90
25811;DHT22;13645;52.460;13.910;2022-07-01T06:15:52;24.70;99.90
25811;DHT22;13645;52.460;13.910;2022-07-01T06:18:19;24.80;99.90
25811;DHT22;13645;52.460;13.910;2022-07-01T06:20:45;24.90;99.90
25811;DHT22;13645;52.460;13.910;2022-07-01T06:23:12;25.10;99.90
25811;DHT22;13645;52.460;13.910;2022-07-01T06:25:39;25.30;99.90
25811;DHT22;13645;52.460;13.910;2022-07-01T06:28:05;25.40;99.90
25811;DHT22;13645;52.460;13.910;2022-07-01T06:30:32;25.60;99.90
25811;DHT22;13645;52.460;13.910;2022-07-01T06:32:59;25.80;99.90
25811;DHT22;13645;52.460;13.910;2022-07-01T06:35:26;25.90;99.90
25811;DHT22;13645;52.460;13.910;2022-07-01T06:37:52;26.20;99.90
25811;DHT22;13645;52.460;13.910;2022-07-01T06:40:24;26.30;99.90
25811;DHT22;13645;52.460;13.910;2022-07-01T06:42:51;26.60;99.90
25811;DHT22;13645;52.460;13.910;2022-07-01T06:45:19;26.80;99.90
25811;DHT22;13645;52.460;13.910;2022-07-01T06:47:46;27.00;99.90
25811;DHT22;13645;52.460;13.910;2022-07-01T06:50:12;27.20;99.90
25811;DHT22;13645;52.460;13.910;2022-07-01T06:52:39;27.50;99.90
25811;DHT22;13645;52.460;13.910;2022-07-01T06:55:06;27.70;99.90
25811;DHT22;13645;52.460;13.910;2022-07-01T06:57:33;27.90;99.90
25811;DHT22;13645;52.460;13.910;2022-07-01T07:00:00;28.20;99.90
25811;DHT22;13645;52.460;13.910;2022-07-01T07:02:26;28.50;99.90
25811;DHT22;13645;52.460;13.910;2022-07-01T07:04:55;28.70;99.90
25811;DHT22;13645;52.460;13.910;2022-07-01T07:07:27;28.80;99.90
25811;DHT22;13645;52.460;13.910;2022-07-01T07:09:53;28.90;99.90
25811;DHT22;13645;52.460;13.910;2022-07-01T07:12:22;29.00;99.90
25811;DHT22;13645;52.460;13.910;2022-07-01T07:14:49;29.20;99.90
25811;DHT22;13645;52.460;13.910;2022-07-01T07:17:15;29.30;99.90
25811;DHT22;13645;52.460;13.910;2022-07-01T07:19:42;29.20;99.90
25811;DHT22;13645;52.460;13.910;2022-07-01T07:22:09;28.70;99.90
25811;DHT22;13645;52.460;13.910;2022-07-01T07:24:36;28.70;99.90
25811;DHT22;13645;52.460;13.910;2022-07-01T07:27:04;28.50;99.90
25811;DHT22;13645;52.460;13.910;2022-07-01T07:29:31;28.60;99.90
25811;DHT22;13645;52.460;13.910;2022-07-01T07:31:57;28.80;99.90
25811;DHT22;13645;52.460;13.910;2022-07-01T07:34:24;29.00;99.90
25811;DHT22;13645;52.460;13.910;2022-07-01T07:36:51;29.30;99.90
25811;DHT22;13645;52.460;13.910;2022-07-01T07:39:18;29.20;99.90
25811;DHT22;13645;52.460;13.910;2022-07-01T07:41:45;29.00;99.90
25811;DHT22;13645;52.460;13.910;2022-07-01T07:44:11;28.80;99.90
25811;DHT22;13645;52.460;13.910;2022-07-01T07:46:38;28.90;99.90
25811;DHT22;13645;52.460;13.910;2022-07-01T07:49:05;29.10;99.90
25811;DHT22;13645;52.460;13.910;2022-07-01T07:51:32;29.50;99.90
25811;DHT22;13645;52.460;13.910;2022-07-01T07:53:58;30.00;99.90
25811;DHT22;13645;52.460;13.910;2022-07-01T07:56:26;30.40;99.90
25811;DHT22;13645;52.460;13.910;2022-07-01T07:58:53;30.60;99.90
25811;DHT22;13645;52.460;13.910;2022-07-01T08:01:20;30.60;99.90
25811;DHT22;13645;52.460;13.910;2022-07-01T08:03:47;30.40;99.90
25811;DHT22;13645;52.460;13.910;2022-07-01T08:06:14;30.20;99.90
25811;DHT22;13645;52.460;13.910;2022-07-01T08:08:40;29.80;99.90
25811;DHT22;13645;52.460;13.910;2022-07-01T08:11:07;29.50;99.90
25811;DHT22;13645;52.460;13.910;2022-07-01T08:13:34;29.30;99.90
25811;DHT22;13645;52.460;13.910;2022-07-01T08:16:01;29.20;99.90
25811;DHT22;13645;52.460;13.910;2022-07-01T08:18:27;29.60;99.90
25811;DHT22;13645;52.460;13.910;2022-07-01T08:20:54;30.20;99.90
25811;DHT22;13645;52.460;13.910;2022-07-01T08:23:21;30.50;99.90
25811;DHT22;13645;52.460;13.910;2022-07-01T08:25:49;31.00;99.90
25811;DHT22;13645;52.460;13.910;2022-07-01T08:28:16;31.10;99.90
25811;DHT22;13645;52.460;13.910;2022-07-01T08:30:43;30.90;99.90
25811;DHT22;13645;52.460;13.910;2022-07-01T08:33:10;31.10;99.90
25811;DHT22;13645;52.460;13.910;2022-07-01T08:35:37;30.90;99.90
25811;DHT22;13645;52.460;13.910;2022-07-01T08:38:05;31.10;99.90
25811;DHT22;13645;52.460;13.910;2022-07-01T08:40:32;30.70;99.90
25811;DHT22;13645;52.460;13.910;2022-07-01T08:43:03;30.90;99.90
25811;DHT22;13645;52.460;13.910;2022-07-01T08:45:32;30.70;99.90
25811;DHT22;13645;52.460;13.910;2022-07-01T08:48:00;31.00;99.90
25811;DHT22;13645;52.460;13.910;2022-07-01T08:50:38;31.10;99.90
25811;DHT22;13645;52.460;13.910;2022-07-01T08:53:08;31.60;99.90
25811;DHT22;13645;52.460;13.910;2022-07-01T08:55:35;32.00;99.90
25811;DHT22;13645;52.460;13.910;2022-07-01T08:58:22;32.30;99.90
25811;DHT22;13645;52.460;13.910;2022-07-01T09:00:49;32.60;99.90
25811;DHT22;13645;52.460;13.910;2022-07-01T09:03:20;32.70;99.90
25811;DHT22;13645;52.460;13.910;2022-07-01T09:05:50;32.80;99.90
25811;DHT22;13645;52.460;13.910;2022-07-01T09:08:18;33.10;99.90
25811;DHT22;13645;52.460;13.910;2022-07-01T09:10:45;33.20;99.90
25811;DHT22;13645;52.460;13.910;2022-07-01T09:13:13;32.70;99.90
25811;DHT22;13645;52.460;13.910;2022-07-01T09:15:41;32.20;99.90
25811;DHT22;13645;52.460;13.910;2022-07-01T09:18:13;31.60;99.90
25811;DHT22;13645;52.460;13.910;2022-07-01T09:20:43;30.90;99.90
25811;DHT22;13645;52.460;13.910;2022-07-01T09:23:12;30.20;99.90
25811;DHT22;13645;52.460;13.910;2022-07-01T09:28:24;29.30;99.90
25811;DHT22;13645;52.460;13.910;2022-07-01T09:30:54;29.10;99.90
25811;DHT22;13645;52.460;13.910;2022-07-01T09:33:25;28.90;99.90
25811;DHT22;13645;52.460;13.910;2022-07-01T09:35:53;28.90;99.90
25811;DHT22;13645;52.460;13.910;2022-07-01T09:38:22;29.00;99.90
25811;DHT22;13645;52.460;13.910;2022-07-01T09:41:03;29.00;99.90
25811;DHT22;13645;52.460;13.910;2022-07-01T09:43:32;29.30;99.90
25811;DHT22;13645;52.460;13.910;2022-07-01T09:46:09;29.70;99.90
25811;DHT22;13645;52.460;13.910;2022-07-01T09:51:05;31.00;99.90
25811;DHT22;13645;52.460;13.910;2022-07-01T09:53:40;30.90;99.90
25811;DHT22;13645;52.460;13.910;2022-07-01T09:56:07;30.60;99.90
25811;DHT22;13645;52.460;13.910;2022-07-01T09:58:34;30.60;99.90
25811;DHT22;13645;52.460;13.910;2022-07-01T10:01:03;30.30;99.90
25811;DHT22;13645;52.460;13.910;2022-07-01T10:03:31;30.20;99.90
25811;DHT22;13645;52.460;13.910;2022-07-01T10:07:01;30.50;99.90
25811;DHT22;13645;52.460;13.910;2022-07-01T10:12:34;30.10;99.90
25811;DHT22;13645;52.460;13.910;2022-07-01T10:15:03;30.00;99.90
25811;DHT22;13645;52.460;13.910;2022-07-01T10:17:34;29.00;99.90
25811;DHT22;13645;52.460;13.910;2022-07-01T10:20:10;28.70;99.90
25811;DHT22;13645;52.460;13.910;2022-07-01T10:22:40;27.40;99.90
25811;DHT22;13645;52.460;13.910;2022-07-01T10:25:30;26.40;99.90
25811;DHT22;13645;52.460;13.910;2022-07-01T10:31:09;25.00;99.90
25811;DHT22;13645;52.460;13.910;2022-07-01T10:33:58;24.30;99.90
25811;DHT22;13645;52.460;13.910;2022-07-01T10:36:32;24.20;99.90
25811;DHT22;13645;52.460;13.910;2022-07-01T10:41:41;23.80;99.90
25811;DHT22;13645;52.460;13.910;2022-07-01T10:44:14;24.20;99.90
25811;DHT22;13645;52.460;13.910;2022-07-01T10:46:47;24.80;99.90
25811;DHT22;13645;52.460;13.910;2022-07-01T10:49:19;24.50;99.90
25811;DHT22;13645;52.460;13.910;2022-07-01T10:51:48;24.30;99.90
25811;DHT22;13645;52.460;13.910;2022-07-01T10:59:48;23.80;99.90
25811;DHT22;13645;52.460;13.910;2022-07-01T11:02:21;23.90;99.90
25811;DHT22;13645;52.460;13.910;2022-07-01T11:04:51;24.10;99.90
25811;DHT22;13645;52.460;13.910;2022-07-01T11:07:18;24.40;99.90
25811;DHT22;13645;52.460;13.910;2022-07-01T11:09:46;24.80;99.90
25811;DHT22;13645;52.460;13.910;2022-07-01T11:12:15;25.00;99.90
25811;DHT22;13645;52.460;13.910;2022-07-01T11:14:42;25.00;99.90
25811;DHT22;13645;52.460;13.910;2022-07-01T11:17:10;25.20;99.90
25811;DHT22;13645;52.460;13.910;2022-07-01T11:19:37;25.40;99.90
25811;DHT22;13645;52.460;13.910;2022-07-01T11:22:04;24.80;99.90
25811;DHT22;13645;52.460;13.910;2022-07-01T11:24:32;24.70;99.90
25811;DHT22;13645;52.460;13.910;2022-07-01T11:27:08;23.90;99.90
25811;DHT22;13645;52.460;13.910;2022-07-01T11:29:35;24.10;99.90
25811;DHT22;13645;52.460;13.910;2022-07-01T11:32:03;24.40;99.90
25811;DHT22;13645;52.460;13.910;2022-07-01T11:34:30;24.50;99.90
25811;DHT22;13645;52.460;13.910;2022-07-01T11:36:57;24.50;99.90
25811;DHT22;13645;52.460;13.910;2022-07-01T11:39:46;24.30;99.90
25811;DHT22;13645;52.460;13.910;2022-07-01T11:42:14;23.80;99.90
25811;DHT22;13645;52.460;13.910;2022-07-01T11:44:43;23.40;99.90
25811;DHT22;13645;52.460;13.910;2022-07-01T11:47:23;22.90;99.90
25811;DHT22;13645;52.460;13.910;2022-07-01T11:49:50;22.60;99.90
25811;DHT22;13645;52.460;13.910;2022-07-01T11:52:19;22.10;99.90
25811;DHT22;13645;52.460;13.910;2022-07-01T11:54:49;21.90;99.90
25811;DHT22;13645;52.460;13.910;2022-07-01T11:57:18;21.90;99.90
25811;DHT22;13645;52.460;13.910;2022-07-01T11:59:46;21.80;99.90
25811;DHT22;13645;52.460;13.910;2022-07-01T12:02:15;21.50;99.90
25811;DHT22;13645;52.460;13.910;2022-07-01T12:04:43;21.30;99.90
25811;DHT22;13645;52.460;13.910;2022-07-01T12:07:10;21.30;99.90
25811;DHT22;13645;52.460;13.910;2022-07-01T12:09:38;21.30;99.90
25811;DHT22;13645;52.460;13.910;2022-07-01T12:12:07;21.40;99.90
25811;DHT22;13645;52.460;13.910;2022-07-01T12:14:48;21.20;99.90
25811;DHT22;13645;52.460;13.910;2022-07-01T12:17:16;21.30;99.90
25811;DHT22;13645;52.460;13.910;2022-07-01T12:19:45;21.80;99.90
25811;DHT22;13645;52.460;13.910;2022-07-01T12:22:19;22.00;99.90
25811;DHT22;13645;52.460;13.910;2022-07-01T12:24:47;22.30;99.90
25811;DHT22;13645;52.460;13.910;2022-07-01T12:27:14;23.00;99.90
25811;DHT22;13645;52.460;13.910;2022-07-01T12:29:50;23.20;99.90
25811;DHT22;13645;52.460;13.910;2022-07-01T12:32:25;23.50;99.90
25811;DHT22;13645;52.460;13.910;2022-07-01T12:34:57;23.30;99.90
25811;DHT22;13645;52.460;13.910;2022-07-01T12:37:31;23.60;99.90
25811;DHT22;13645;52.460;13.910;2022-07-01T12:40:00;23.90;99.90
25811;DHT22;13645;52.460;13.910;2022-07-01T12:42:37;24.00;99.90
25811;DHT22;13645;52.460;13.910;2022-07-01T12:45:07;24.60;99.90
25811;DHT22;13645;52.460;13.910;2022-07-01T12:47:36;24.80;99.90
25811;DHT22;13645;52.460;13.910;2022-07-01T12:50:20;25.20;99.90
25811;DHT22;13645;52.460;13.910;2022-07-01T12:55:24;26.00;99.90
25811;DHT22;13645;52.460;13.910;2022-07-01T12:57:53;26.40;99.90
25811;DHT22;13645;52.460;13.910;2022-07-01T13:00:22;26.40;99.90
25811;DHT22;13645;52.460;13.910;2022-07-01T13:02:57;25.80;99.90
25811;DHT22;13645;52.460;13.910;2022-07-01T13:05:25;25.70;99.90
25811;DHT22;13645;52.460;13.910;2022-07-01T13:07:52;25.80;99.90
25811;DHT22;13645;52.460;13.910;2022-07-01T13:10:20;25.80;99.90
25811;DHT22;13645;52.460;13.910;2022-07-01T13:12:47;25.30;99.90
25811;DHT22;13645;52.460;13.910;2022-07-01T13:15:15;24.80;99.90
25811;DHT22;13645;52.460;13.910;2022-07-01T13:17:43;24.50;99.90
25811;DHT22;13645;52.460;13.910;2022-07-01T13:20:11;24.10;99.90
25811;DHT22;13645;52.460;13.910;2022-07-01T13:22:38;24.10;99.90
25811;DHT22;13645;52.460;13.910;2022-07-01T13:25:06;23.80;99.90
25811;DHT22;13645;52.460;13.910;2022-07-01T13:27:34;23.70;99.90
25811;DHT22;13645;52.460;13.910;2022-07-01T13:30:00;23.50;99.90
25811;DHT22;13645;52.460;13.910;2022-07-01T13:32:29;23.30;99.90
25811;DHT22;13645;52.460;13.910;2022-07-01T13:34:56;23.30;99.90
25811;DHT22;13645;52.460;13.910;2022-07-01T13:37:23;22.80;99.90
25811;DHT22;13645;52.460;13.910;2022-07-01T13:39:49;22.60;99.90
25811;DHT22;13645;52.460;13.910;2022-07-01T13:42:16;22.20;99.90
25811;DHT22;13645;52.460;13.910;2022-07-01T13:44:43;22.10;99.90
25811;DHT22;13645;52.460;13.910;2022-07-01T13:47:09;21.90;99.90
25811;DHT22;13645;52.460;13.910;2022-07-01T13:49:39;21.70;99.90
25811;DHT22;13645;52.460;13.910;2022-07-01T13:52:09;21.40;99.90
25811;DHT22;13645;52.460;13.910;2022-07-01T13:54:36;21.30;99.90
25811;DHT22;13645;52.460;13.910;2022-07-01T13:57:03;21.30;99.90
25811;DHT22;13645;52.460;13.910;2022-07-01T13:59:30;21.20;99.90
25811;DHT22;13645;52.460;13.910;2022-07-01T14:02:00;21.00;99.90
25811;DHT22;13645;52.460;13.910;2022-07-01T14:04:27;21.00;99.90
25811;DHT22;13645;52.460;13.910;2022-07-01T14:06:54;20.90;99.90
25811;DHT22;13645;52.460;13.910;2022-07-01T14:09:21;21.00;99.90
25811;DHT22;13645;52.460;13.910;2022-07-01T14:11:48;21.00;99.90
25811;DHT22;13645;52.460;13.910;2022-07-01T14:14:15;20.90;99.90
25811;DHT22;13645;52.460;13.910;2022-07-01T14:16:42;20.70;99.90
25811;DHT22;13645;52.460;13.910;2022-07-01T14:19:08;20.80;99.90
25811;DHT22;13645;52.460;13.910;2022-07-01T14:21:35;20.70;99.90
25811;DHT22;13645;52.460;13.910;2022-07-01T14:24:05;20.40;99.90
25811;DHT22;13645;52.460;13.910;2022-07-01T14:26:32;20.20;99.90
25811;DHT22;13645;52.460;13.910;2022-07-01T14:28:59;20.10;99.90
25811;DHT22;13645;52.460;13.910;2022-07-01T14:31:25;20.10;99.90
25811;DHT22;13645;52.460;13.910;2022-07-01T14:33:52;20.10;99.90
25811;DHT22;13645;52.460;13.910;2022-07-01T14:36:19;20.00;99.90
25811;DHT22;13645;52.460;13.910;2022-07-01T14:38:46;19.90;99.90
25811;DHT22;13645;52.460;13.910;2022-07-01T14:41:12;20.00;99.90
25811;DHT22;13645;52.460;13.910;2022-07-01T14:43:39;19.90;99.90
25811;DHT22;13645;52.460;13.910;2022-07-01T14:46:06;19.90;99.90
25811;DHT22;13645;52.460;13.910;2022-07-01T14:48:35;19.80;99.90
25811;DHT22;13645;52.460;13.910;2022-07-01T14:51:05;19.60;99.90
25811;DHT22;13645;52.460;13.910;2022-07-01T14:53:32;19.50;99.90
25811;DHT22;13645;52.460;13.910;2022-07-01T14:55:59;19.50;99.90
25811;DHT22;13645;52.460;13.910;2022-07-01T14:58:27;19.50;99.90
25811;DHT22;13645;52.460;13.910;2022-07-01T15:00:53;19.60;99.90
25811;DHT22;13645;52.460;13.910;2022-07-01T15:03:20;19.80;99.90
25811;DHT22;13645;52.460;13.910;2022-07-01T15:05:47;19.70;99.90
25811;DHT22;13645;52.460;13.910;2022-07-01T15:08:20;19.60;99.90
25811;DHT22;13645;52.460;13.910;2022-07-01T15:10:46;19.70;99.90
25811;DHT22;13645;52.460;13.910;2022-07-01T15:13:15;19.60;99.90
25811;DHT22;13645;52.460;13.910;2022-07-01T15:15:43;19.60;99.90
25811;DHT22;13645;52.460;13.910;2022-07-01T15:18:10;19.60;99.90
25811;DHT22;13645;52.460;13.910;2022-07-01T15:20:36;19.60;99.90
25811;DHT22;13645;52.460;13.910;2022-07-01T15:23:03;19.60;99.90
25811;DHT22;13645;52.460;13.910;2022-07-01T15:25:30;19.60;99.90
25811;DHT22;13645;52.460;13.910;2022-07-01T15:27:57;19.50;99.90
25811;DHT22;13645;52.460;13.910;2022-07-01T15:30:24;19.50;99.90
25811;DHT22;13645;52.460;13.910;2022-07-01T15:32:51;19.30;99.90
25811;DHT22;13645;52.460;13.910;2022-07-01T15:35:18;19.20;99.90
25811;DHT22;13645;52.460;13.910;2022-07-01T15:37:45;19.20;99.90
25811;DHT22;13645;52.460;13.910;2022-07-01T15:40:11;19.10;99.90
25811;DHT22;13645;52.460;13.910;2022-07-01T15:42:38;19.10;99.90
25811;DHT22;13645;52.460;13.910;2022-07-01T15:45:05;19.10;99.90